Time;durP1;ratioP1;P1;durP2;ratioP2;P2;SDS_P1;SDS_P2;PMS_P1;PMS_P2;Temp;Humidity;BMP_temperature;BMP_pressure;BME280_temperature;BME280_humidity;BME280_pressure;Samples;Min_cycle;Max_cycle;Signal;HPM_P1;HPM_P2
2024/02/26 00:01:36;;;;;;;5.35;3.60;;;;;;;19.92;53.77;100485.44;10438264;28;20045;-83
2024/02/26 00:06:58;;;;;;;6.60;3.25;;;;;;;19.95;53.65;100490.72;10480034;28;20045;-85
2024/02/26 00:12:21;;;;;;;7.10;3.17;;;;;;;20.06;49.68;100490.41;10440652;28;20106;-85
2024/02/26 00:17:45;;;;;;;6.57;3.53;;;;;;;20.02;57.37;100480.72;10479612;28;20045;-85
2024/02/26 00:23:07;;;;;;;9.05;3.65;;;;;;;19.71;69.04;100454.75;10436632;28;20135;-84
2024/02/26 00:28:30;;;;;;;10.35;4.35;;;;;;;19.63;65.91;100440.66;10451759;28;20049;-85
2024/02/26 00:33:54;;;;;;;8.25;3.95;;;;;;;19.04;79.10;100420.75;10450593;28;20048;-85
2024/02/26 00:39:17;;;;;;;10.38;4.90;;;;;;;18.35;92.86;100415.22;10450327;28;20044;-85
2024/02/26 00:44:39;;;;;;;7.00;4.15;;;;;;;18.45;92.59;100435.47;10436938;28;20501;-85
2024/02/26 00:50:03;;;;;;;7.28;3.17;;;;;;;18.44;99.92;100415.03;10435342;28;20036;-85
2024/02/26 00:55:26;;;;;;;12.23;4.88;;;;;;;18.75;98.39;100415.25;10460383;28;20048;-85
2024/02/26 01:00:48;;;;;;;13.68;5.68;;;;;;;18.71;100.00;100385.00;10477524;28;20051;-85
2024/02/26 01:06:12;;;;;;;11.20;4.32;;;;;;;18.55;100.00;100384.50;10465617;28;20052;-86
2024/02/26 01:11:35;;;;;;;14.07;5.25;;;;;;;18.70;100.00;100420.69;10464217;28;20061;-84
2024/02/26 01:16:58;;;;;;;13.05;4.63;;;;;;;18.72;100.00;100437.56;10459629;28;20683;-84
2024/02/26 01:22:22;;;;;;;13.65;4.05;;;;;;;18.90;100.00;100465.72;10448808;28;20057;-86
2024/02/26 01:27:44;;;;;;;12.90;5.70;;;;;;;18.94;100.00;100444.19;10449311;28;20045;-85
2024/02/26 01:33:07;;;;;;;14.27;4.55;;;;;;;19.00;100.00;100464.56;10426208;28;20529;-85
2024/02/26 01:38:31;;;;;;;15.02;5.85;;;;;;;18.96;100.00;100465.56;10435621;28;20052;-85
2024/02/26 01:43:53;;;;;;;17.85;7.28;;;;;;;18.13;100.00;100476.22;10449774;28;20053;-85
2024/02/26 01:49:17;;;;;;;17.98;8.43;;;;;;;17.53;100.00;100423.94;10449674;28;20068;-85
2024/02/26 01:54:42;;;;;;;19.50;9.73;;;;;;;16.63;100.00;100405.00;10463327;28;20095;-81
2024/02/26 02:00:07;;;;;;;17.58;8.82;;;;;;;16.42;100.00;100398.16;10462240;28;20462;-82
2024/02/26 02:05:32;;;;;;;19.13;8.07;;;;;;;16.22;100.00;100374.47;10425210;28;20045;-82
2024/02/26 02:10:56;;;;;;;17.80;6.88;;;;;;;16.45;100.00;100394.59;10452187;28;20068;-81
2024/02/26 02:16:18;;;;;;;15.05;6.78;;;;;;;16.65;100.00;100396.09;10455550;28;20059;-80
2024/02/26 02:21:42;;;;;;;17.42;8.55;;;;;;;16.32;100.00;100399.22;10469055;28;20080;-81
2024/02/26 02:27:05;;;;;;;19.88;7.88;;;;;;;16.12;100.00;100380.84;10451163;28;20045;-84
2024/02/26 02:32:29;;;;;;;16.15;7.53;;;;;;;16.02;100.00;100352.53;10441697;28;20495;-81
2024/02/26 02:37:53;;;;;;;20.50;7.57;;;;;;;16.22;100.00;100355.81;10454407;28;20045;-81
2024/02/26 02:43:19;;;;;;;27.75;8.70;;;;;;;16.74;100.00;100363.94;10443527;28;20509;-80
2024/02/26 02:48:43;;;;;;;35.03;9.13;;;;;;;17.41;100.00;100344.09;10455044;28;20041;-81
2024/02/26 02:54:07;;;;;;;37.00;11.05;;;;;;;17.59;100.00;100292.13;10454942;28;20056;-80
2024/02/26 02:59:29;;;;;;;33.63;9.23;;;;;;;17.65;100.00;100267.16;10473045;28;20056;-79
2024/02/26 03:04:52;;;;;;;52.78;13.43;;;;;;;17.81;100.00;100261.44;10467870;28;20068;-79
2024/02/26 03:10:16;;;;;;;62.38;12.20;;;;;;;17.49;100.00;100280.78;10477448;28;20053;-80
2024/02/26 03:15:39;;;;;;;66.95;11.30;;;;;;;16.79;100.00;100358.56;10470708;28;20048;-79
2024/02/26 03:21:04;;;;;;;50.15;8.35;;;;;;;17.12;100.00;100415.78;10480162;28;20083;-79
2024/02/26 03:26:28;;;;;;;43.70;8.13;;;;;;;17.27;100.00;100423.50;10466692;28;20045;-79
2024/02/26 03:31:50;;;;;;;57.65;10.10;;;;;;;16.72;100.00;100415.53;10438521;28;20049;-79
2024/02/26 03:37:12;;;;;;;48.72;7.78;;;;;;;16.39;100.00;100430.19;10479224;28;20056;-79
2024/02/26 03:42:36;;;;;;;42.30;8.05;;;;;;;16.15;100.00;100442.03;10464340;28;20037;-78
2024/02/26 03:47:59;;;;;;;42.00;6.50;;;;;;;16.11;100.00;100429.66;10438786;28;20049;-79
2024/02/26 03:53:22;;;;;;;41.42;7.18;;;;;;;15.92;100.00;100421.03;10479771;28;20067;-79
2024/02/26 03:58:46;;;;;;;45.30;7.28;;;;;;;15.57;100.00;100408.97;10465915;28;20064;-78
2024/02/26 04:04:08;;;;;;;39.47;5.75;;;;;;;15.38;100.00;100413.56;10437015;28;20053;-78
2024/02/26 04:09:32;;;;;;;36.35;4.80;;;;;;;15.42;100.00;100410.91;10451045;28;20056;-78
2024/02/26 04:14:56;;;;;;;40.22;6.30;;;;;;;15.44;100.00;100424.16;10426190;28;20076;-79
2024/02/26 04:20:19;;;;;;;36.88;4.93;;;;;;;15.52;100.00;100422.31;10445401;28;20102;-80
2024/02/26 04:25:41;;;;;;;40.63;6.30;;;;;;;15.57;100.00;100416.97;10450573;28;20127;-81
2024/02/26 04:31:05;;;;;;;36.40;7.03;;;;;;;15.40;100.00;100423.31;10437163;28;20127;-82
2024/02/26 04:36:28;;;;;;;50.05;8.90;;;;;;;15.31;100.00;100417.19;10464928;28;20063;-81
2024/02/26 04:41:50;;;;;;;34.22;7.22;;;;;;;15.26;100.00;100432.31;10478458;28;20079;-81
2024/02/26 04:47:14;;;;;;;37.50;8.80;;;;;;;15.16;100.00;100431.53;10450829;28;20072;-80
2024/02/26 04:52:37;;;;;;;37.03;8.18;;;;;;;15.05;100.00;100450.22;10477938;28;20044;-80
2024/02/26 04:58:00;;;;;;;26.80;5.28;;;;;;;14.90;100.00;100458.28;10435673;28;20135;-80
2024/02/26 05:03:24;;;;;;;37.90;18.92;;;;;;;14.79;100.00;100464.56;10451119;28;20041;-80
2024/02/26 05:08:46;;;;;;;20.77;5.25;;;;;;;14.85;100.00;100478.69;10478554;28;20049;-81
2024/02/26 05:14:09;;;;;;;41.53;16.35;;;;;;;14.97;100.00;100499.88;10476742;28;20095;-81
2024/02/26 05:19:33;;;;;;;24.75;6.25;;;;;;;15.26;100.00;100501.47;10462358;28;20049;-81
2024/02/26 05:24:56;;;;;;;29.63;7.65;;;;;;;15.47;100.00;100490.66;10463459;28;20533;-80
2024/02/26 05:30:18;;;;;;;23.30;6.72;;;;;;;15.91;100.00;100495.56;10449094;28;20064;-82
2024/02/26 05:35:43;;;;;;;35.75;9.30;;;;;;;16.54;100.00;100491.25;10446537;28;20045;-81
2024/02/26 05:41:05;;;;;;;30.33;10.30;;;;;;;17.42;100.00;100492.63;10425059;28;20060;-81
2024/02/26 05:46:28;;;;;;;17.98;4.30;;;;;;;20.25;100.00;100491.66;10455427;28;20245;-82
2024/02/26 05:51:52;;;;;;;18.80;3.75;;;;;;;20.38;100.00;100502.94;10443828;28;20045;-83
2024/02/26 05:57:14;;;;;;;17.48;5.15;;;;;;;18.97;100.00;100512.81;10470689;28;20048;-83
2024/02/26 06:02:37;;;;;;;15.45;3.30;;;;;;;19.12;100.00;100531.16;10470670;28;20049;-82
2024/02/26 06:08:02;;;;;;;16.23;3.17;;;;;;;20.83;100.00;100516.81;10456399;28;20568;-82
2024/02/26 06:13:25;;;;;;;16.60;2.35;;;;;;;18.82;100.00;100511.34;10443019;28;20821;-82
2024/02/26 06:18:47;;;;;;;7.88;2.17;;;;;;;17.42;100.00;100531.78;10441671;28;20048;-82
2024/02/26 06:24:11;;;;;;;12.75;2.65;;;;;;;17.18;100.00;100530.41;10442147;28;20477;-82
2024/02/26 06:29:34;;;;;;;13.15;2.22;;;;;;;20.18;100.00;100541.88;10442609;28;20041;-82
2024/02/26 10:15:27;;;;;;;12.20;2.17;;;;;;;17.78;100.00;100460.91;10554788;27;20397;-86
2024/02/26 10:21:01;;;;;;;9.02;2.08;;;;;;;17.81;100.00;100440.34;10519867;28;20131;-86
2024/02/26 10:26:25;;;;;;;14.80;3.40;;;;;;;16.99;100.00;100459.56;10495460;28;20052;-88
2024/02/26 10:31:49;;;;;;;0.20;0.20;;;;;;;17.35;100.00;100448.28;10511492;28;20048;-84
2024/02/26 10:37:13;;;;;;;0.20;0.20;;;;;;;20.12;100.00;100437.53;10520052;28;20800;-88
2024/02/26 10:42:36;;;;;;;6.00;1.75;;;;;;;21.41;100.00;100414.69;10519253;28;20060;-84
2024/02/26 10:48:01;;;;;;;6.38;2.50;;;;;;;20.90;100.00;100401.19;10509046;28;20052;-86
2024/02/26 10:53:24;;;;;;;6.70;1.90;;;;;;;20.56;100.00;100389.75;10524568;28;20040;-84
2024/02/26 10:58:48;;;;;;;7.78;2.50;;;;;;;21.94;100.00;100382.34;10525019;28;20048;-85
2024/02/26 11:04:20;;;;;;;11.68;2.67;;;;;;;20.62;100.00;100358.25;10538027;28;20067;-87
2024/02/26 11:09:46;;;;;;;10.02;3.03;;;;;;;19.14;100.00;100350.03;10515571;28;20071;-87
2024/02/26 11:15:12;;;;;;;8.27;2.65;;;;;;;18.82;100.00;100325.91;10512861;28;20040;-88
2024/02/26 11:20:39;;;;;;;9.23;2.40;;;;;;;18.73;100.00;100310.97;10473515;28;20052;-90
2024/02/26 11:26:03;;;;;;;6.27;2.13;;;;;;;18.28;100.00;100268.38;10481602;28;20036;-86
2024/02/26 11:31:27;;;;;;;11.13;3.25;;;;;;;17.61;100.00;100293.03;10469501;28;20045;-91
2024/02/26 11:36:52;;;;;;;9.57;2.97;;;;;;;16.36;100.00;100243.75;10482512;28;20090;-88
2024/02/26 11:42:16;;;;;;;10.70;3.03;;;;;;;15.63;100.00;100257.25;10523610;28;20060;-89
2024/02/26 11:47:39;;;;;;;9.65;3.25;;;;;;;15.56;100.00;100322.97;10480759;28;20055;-82
2024/02/26 11:53:26;;;;;;;9.73;2.88;;;;;;;16.30;100.00;100345.94;10498151;28;20045;-82
2024/02/26 11:58:49;;;;;;;9.23;2.40;;;;;;;16.82;100.00;100352.28;10500965;28;20043;-82
2024/02/26 12:04:18;;;;;;;10.00;2.97;;;;;;;17.57;100.00;100331.34;10486790;28;20072;-92
2024/02/26 12:09:43;;;;;;;9.85;3.08;;;;;;;17.68;100.00;100372.09;10498153;28;20064;-87
2024/02/26 12:15:11;;;;;;;9.75;2.75;;;;;;;18.47;100.00;100350.78;10501902;28;20052;-86
2024/02/26 12:20:36;;;;;;;12.77;2.40;;;;;;;18.31;100.00;100348.47;10476830;28;20054;-90
2024/02/26 12:26:02;;;;;;;10.27;2.80;;;;;;;18.55;100.00;100367.53;10499376;28;20134;-85
2024/02/26 12:31:28;;;;;;;15.93;3.30;;;;;;;18.63;100.00;100366.47;10491864;28;20048;-93
2024/02/26 12:36:53;;;;;;;12.43;3.22;;;;;;;18.74;100.00;100373.34;10478722;28;20056;-86
2024/02/26 12:42:17;;;;;;;13.25;3.67;;;;;;;18.64;100.00;100360.19;10483663;28;20048;-88
2024/02/26 12:47:40;;;;;;;12.80;2.80;;;;;;;17.28;100.00;100397.72;10489725;28;20498;-87
2024/02/26 12:53:02;;;;;;;8.23;2.85;;;;;;;16.08;100.00;100364.94;10478656;28;20052;-86
2024/02/26 12:58:27;;;;;;;7.50;2.20;;;;;;;14.99;100.00;100381.16;10492614;28;20045;-87
2024/02/26 13:03:50;;;;;;;0.20;0.20;;;;;;;14.75;100.00;100371.59;10478743;28;20056;-94
2024/02/26 13:09:15;;;;;;;0.20;0.20;;;;;;;15.37;100.00;100366.59;10493336;28;20505;-90
2024/02/26 13:14:40;;;;;;;0.20;0.20;;;;;;;15.75;100.00;100383.06;10475791;28;20040;-86
2024/02/26 13:20:03;;;;;;;0.20;0.20;;;;;;;16.20;100.00;100378.94;10448648;28;20421;-85
2024/02/26 13:25:26;;;;;;;0.30;0.30;;;;;;;16.62;100.00;100373.91;10461438;28;20489;-85
2024/02/26 13:30:56;;;;;;;0.47;0.47;;;;;;;17.01;100.00;100346.59;10492250;28;20068;-84
2024/02/26 13:36:18;;;;;;;0.20;0.20;;;;;;;18.03;100.00;100315.28;10478003;28;20036;-83
2024/02/26 13:41:43;;;;;;;0.20;0.20;;;;;;;18.53;100.00;100311.41;10467456;28;20048;-81
2024/02/26 13:47:08;;;;;;;0.20;0.20;;;;;;;18.55;100.00;100324.75;10488858;28;20090;-82
2024/02/26 13:52:32;;;;;;;0.20;0.20;;;;;;;18.71;100.00;100352.91;10488880;28;20086;-82
2024/02/26 13:57:55;;;;;;;0.20;0.20;;;;;;;18.66;100.00;100370.84;10499621;28;20059;-84
2024/02/26 14:03:21;;;;;;;0.25;0.25;;;;;;;18.39;100.00;100361.66;10498279;28;20145;-82
2024/02/26 14:08:43;;;;;;;0.20;0.20;;;;;;;18.38;100.00;100359.03;10487286;28;20056;-83
2024/02/26 14:14:07;;;;;;;0.28;0.28;;;;;;;18.91;100.00;100365.78;10474360;28;20052;-83
2024/02/26 14:19:31;;;;;;;0.85;0.85;;;;;;;19.04;100.00;100365.44;10487169;28;20049;-80
2024/02/26 14:24:54;;;;;;;0.10;0.10;;;;;;;19.34;100.00;100381.63;10474309;28;20040;-83
2024/02/26 14:30:17;;;;;;;0.30;0.30;;;;;;;19.04;100.00;100384.16;10466797;28;20056;-84
2024/02/26 14:35:43;;;;;;;0.20;0.20;;;;;;;18.89;100.00;100383.69;10488505;28;20049;-83
2024/02/26 14:41:05;;;;;;;0.20;0.20;;;;;;;18.45;100.00;100353.50;10483313;28;20155;-83
2024/02/26 14:46:28;;;;;;;0.20;0.20;;;;;;;18.04;100.00;100358.91;10484924;28;20586;-83
2024/02/26 14:51:53;;;;;;;0.20;0.20;;;;;;;17.65;100.00;100352.59;10477263;28;20048;-85
2024/02/26 14:57:16;;;;;;;0.20;0.20;;;;;;;17.40;100.00;100361.00;10458188;28;20512;-84
2024/02/26 15:02:38;;;;;;;0.20;0.20;;;;;;;17.12;100.00;100370.44;10500972;28;20127;-83
2024/02/26 15:08:03;;;;;;;0.20;0.20;;;;;;;16.90;100.00;100371.69;10494900;28;20041;-83
2024/02/26 15:13:25;;;;;;;0.28;0.28;;;;;;;16.19;100.00;100361.22;10493845;28;20052;-84
2024/02/26 15:18:48;;;;;;;0.20;0.20;;;;;;;15.68;100.00;100376.06;10480953;28;20139;-82
2024/02/26 15:24:12;;;;;;;0.40;0.40;;;;;;;15.21;100.00;100387.16;10469285;28;20433;-84
2024/02/26 15:29:36;;;;;;;0.20;0.20;;;;;;;15.08;100.00;100338.53;10508281;28;20502;-82
2024/02/26 15:34:58;;;;;;;0.20;0.20;;;;;;;15.06;100.00;100337.66;10526398;28;20044;-81
2024/02/26 15:40:22;;;;;;;0.20;0.20;;;;;;;15.06;100.00;100311.09;10494317;28;20057;-80
2024/02/26 15:45:49;;;;;;;0.30;0.30;;;;;;;15.07;100.00;100307.53;10461084;28;20103;-81
2024/02/26 15:51:20;;;;;;;0.20;0.20;;;;;;;15.09;100.00;100340.31;10457373;28;20447;-81
2024/02/26 15:56:44;;;;;;;0.20;0.20;;;;;;;15.00;100.00;100359.00;10479384;28;20044;-81
2024/02/26 16:02:07;;;;;;;0.20;0.20;;;;;;;15.03;100.00;100348.31;10488852;28;20451;-80
2024/02/26 16:07:35;;;;;;;0.22;0.22;;;;;;;15.05;100.00;100346.53;10496499;28;20576;-83
2024/02/26 16:13:02;;;;;;;0.25;0.25;;;;;;;15.06;100.00;100358.94;10485983;28;20545;-81
2024/02/26 16:18:24;;;;;;;0.20;0.20;;;;;;;15.15;100.00;100364.19;10481300;28;20135;-81
2024/02/26 16:23:48;;;;;;;0.20;0.20;;;;;;;15.28;100.00;100367.59;10482728;28;20047;-79
2024/02/26 16:29:12;;;;;;;0.20;0.20;;;;;;;15.56;100.00;100370.84;10493324;28;20055;-78
2024/02/26 16:34:34;;;;;;;0.45;0.45;;;;;;;15.49;100.00;100369.16;10499633;28;20113;-79
2024/02/26 16:39:59;;;;;;;0.35;0.35;;;;;;;15.30;100.00;100336.53;10495514;28;20051;-81
2024/02/26 16:45:26;;;;;;;0.20;0.20;;;;;;;15.27;100.00;100335.69;10491379;28;20040;-82
2024/02/26 16:50:49;;;;;;;0.20;0.20;;;;;;;15.16;100.00;100328.69;10477362;28;20049;-82
2024/02/26 16:56:11;;;;;;;14.63;3.80;;;;;;;15.03;100.00;100321.72;10505186;28;20044;-81
2024/02/26 17:01:36;;;;;;;15.05;4.38;;;;;;;14.85;100.00;100335.19;10509107;28;20097;-83
2024/02/26 17:06:58;;;;;;;15.85;3.30;;;;;;;14.90;100.00;100354.63;10477877;28;20049;-79
2024/02/26 17:12:22;;;;;;;22.27;8.40;;;;;;;14.94;100.00;100366.13;10492399;28;20131;-82
2024/02/26 17:17:46;;;;;;;17.65;4.28;;;;;;;15.06;100.00;100388.16;10475700;28;20143;-82
2024/02/26 17:23:08;;;;;;;30.42;13.43;;;;;;;14.94;100.00;100390.94;10489558;28;20099;-82
2024/02/26 17:28:31;;;;;;;86.25;62.63;;;;;;;15.02;100.00;100421.00;10498269;28;20158;-81
2024/02/26 17:33:55;;;;;;;50.10;31.55;;;;;;;15.08;100.00;100436.91;10504027;28;20048;-83
2024/02/26 17:39:17;;;;;;;26.55;7.05;;;;;;;15.18;100.00;100447.44;10457341;28;20052;-83
2024/02/26 17:44:40;;;;;;;20.33;4.60;;;;;;;15.06;100.00;100446.66;10499323;28;20048;-83
2024/02/26 17:50:07;;;;;;;23.00;4.50;;;;;;;14.94;100.00;100444.09;10480336;28;20139;-81
2024/02/26 17:55:30;;;;;;;20.65;3.13;;;;;;;14.95;100.00;100440.56;10480684;28;20051;-82
2024/02/26 18:00:52;;;;;;;22.40;3.10;;;;;;;14.99;100.00;100434.31;10485376;28;20162;-82
2024/02/26 18:06:16;;;;;;;20.13;3.35;;;;;;;15.16;100.00;100426.22;10488643;28;20409;-79
2024/02/26 18:11:39;;;;;;;19.90;4.00;;;;;;;15.04;100.00;100432.50;10501297;28;20247;-82
2024/02/26 18:17:01;;;;;;;15.32;2.63;;;;;;;14.86;100.00;100429.09;10507864;28;20052;-81
2024/02/26 18:22:25;;;;;;;19.02;2.92;;;;;;;14.76;100.00;100420.31;10487544;28;20063;-83
2024/02/26 18:27:49;;;;;;;20.15;3.00;;;;;;;14.77;100.00;100409.66;10477163;28;20052;-90
2024/02/26 18:33:12;;;;;;;19.48;3.28;;;;;;;14.87;100.00;100404.28;10473761;28;20060;-87
2024/02/26 18:38:36;;;;;;;14.45;2.75;;;;;;;15.12;100.00;100416.47;10471013;28;20143;-87
2024/02/26 18:44:00;;;;;;;23.95;3.42;;;;;;;15.30;100.00;100444.69;10516868;28;20045;-86
2024/02/26 18:49:22;;;;;;;18.00;3.15;;;;;;;15.29;100.00;100458.91;10512377;28;20405;-85
2024/02/26 18:54:46;;;;;;;15.73;2.83;;;;;;;15.39;100.00;100456.13;10489909;28;20055;-87
2024/02/26 19:00:10;;;;;;;17.65;4.18;;;;;;;15.37;100.00;100457.91;10484263;28;20052;-85
2024/02/26 19:05:33;;;;;;;11.02;2.83;;;;;;;15.35;100.00;100450.88;10499031;28;20081;-87
2024/02/26 19:10:59;;;;;;;21.58;6.15;;;;;;;15.45;100.00;100457.84;10484737;28;20041;-86
2024/02/26 19:16:24;;;;;;;15.27;3.38;;;;;;;15.38;100.00;100456.13;10485265;28;20044;-87
2024/02/26 19:21:47;;;;;;;21.08;3.83;;;;;;;15.21;100.00;100447.44;10495852;28;20040;-82
2024/02/26 19:27:11;;;;;;;18.08;4.15;;;;;;;15.13;100.00;100456.34;10498486;28;20044;-85
2024/02/26 19:32:34;;;;;;;21.92;3.78;;;;;;;15.19;100.00;100471.38;10492658;28;20048;-83
2024/02/26 19:37:57;;;;;;;18.85;4.07;;;;;;;15.22;100.00;100478.47;10466570;28;20066;-84
2024/02/26 19:43:21;;;;;;;17.88;3.72;;;;;;;15.24;100.00;100455.38;10496041;28;20044;-84
2024/02/26 19:48:43;;;;;;;19.55;3.35;;;;;;;15.31;100.00;100463.28;10483403;28;20056;-80
2024/02/26 19:54:06;;;;;;;17.33;4.40;;;;;;;15.24;100.00;100469.56;10502915;28;20056;-80
2024/02/26 19:59:30;;;;;;;19.55;3.75;;;;;;;15.28;100.00;100492.59;10490119;28;20445;-80
2024/02/26 20:04:52;;;;;;;17.08;3.45;;;;;;;15.38;100.00;100482.72;10501816;28;20534;-82
2024/02/26 20:10:15;;;;;;;19.05;3.30;;;;;;;15.31;100.00;100484.56;10518600;28;20579;-83
2024/02/26 20:15:40;;;;;;;19.75;4.03;;;;;;;15.32;100.00;100498.75;10466949;28;20105;-82
2024/02/26 20:21:02;;;;;;;18.75;4.15;;;;;;;15.40;100.00;100496.91;10532745;28;20396;-81
2024/02/26 20:26:25;;;;;;;21.75;4.85;;;;;;;15.30;100.00;100509.38;10483169;28;20070;-82
2024/02/26 20:31:49;;;;;;;23.40;4.55;;;;;;;15.28;100.00;100502.34;10463976;28;20051;-81
2024/02/26 20:37:13;;;;;;;24.98;4.05;;;;;;;15.38;100.00;100501.34;10492655;28;20076;-82
2024/02/26 20:42:35;;;;;;;20.05;3.65;;;;;;;15.49;100.00;100488.88;10493115;28;20044;-81
2024/02/26 20:47:59;;;;;;;17.50;3.70;;;;;;;15.47;100.00;100478.22;10474513;28;20060;-81
2024/02/26 20:53:22;;;;;;;17.95;3.45;;;;;;;15.38;100.00;100496.91;10450880;28;20059;-82
2024/02/26 20:58:45;;;;;;;18.25;3.20;;;;;;;15.29;100.00;100496.13;10467665;28;20051;-82
2024/02/26 21:04:09;;;;;;;20.20;3.65;;;;;;;15.27;100.00;100496.13;10520090;28;20067;-83
2024/02/26 21:09:32;;;;;;;20.23;4.75;;;;;;;15.41;100.00;100474.75;10450031;28;20045;-83
2024/02/26 21:14:55;;;;;;;25.42;5.22;;;;;;;15.38;100.00;100496.03;10456232;28;20052;-82
2024/02/26 21:20:19;;;;;;;20.73;4.55;;;;;;;15.34;100.00;100492.53;10490951;28;20445;-82
2024/02/26 21:25:42;;;;;;;13.60;4.05;;;;;;;15.43;100.00;100503.06;10489576;28;20048;-82
2024/02/26 21:31:05;;;;;;;17.55;3.72;;;;;;;15.51;100.00;100511.00;10490743;28;20060;-83
2024/02/26 21:36:29;;;;;;;12.05;3.17;;;;;;;15.54;100.00;100517.22;10491523;28;20048;-83
2024/02/26 21:41:51;;;;;;;18.20;3.25;;;;;;;15.61;100.00;100525.16;10491102;28;20486;-82
2024/02/26 21:47:14;;;;;;;19.08;3.10;;;;;;;15.64;100.00;100541.06;10491203;28;20045;-82
2024/02/26 21:52:39;;;;;;;12.23;2.72;;;;;;;15.68;100.00;100538.41;10490433;28;20045;-82
2024/02/26 21:58:02;;;;;;;10.52;2.90;;;;;;;15.73;100.00;100560.53;10456212;28;20138;-82
2024/02/26 22:03:24;;;;;;;13.80;2.85;;;;;;;15.79;100.00;100552.47;10478590;28;20048;-82
2024/02/26 22:08:49;;;;;;;20.48;3.42;;;;;;;15.80;100.00;100564.91;10447814;28;20041;-81
2024/02/26 22:14:11;;;;;;;12.68;3.05;;;;;;;15.84;100.00;100563.06;10456064;28;20064;-82
2024/02/26 22:19:34;;;;;;;19.23;3.92;;;;;;;15.78;100.00;100566.69;10515294;28;20428;-81
2024/02/26 22:24:58;;;;;;;15.15;3.38;;;;;;;15.73;100.00;100568.50;10517528;28;20489;-82
2024/02/26 22:30:21;;;;;;;13.85;3.30;;;;;;;15.93;100.00;100584.31;10517488;28;20053;-82
2024/02/26 22:35:43;;;;;;;11.23;2.80;;;;;;;15.96;100.00;100570.94;10421274;28;20391;-82
2024/02/26 22:41:07;;;;;;;11.85;2.08;;;;;;;15.96;100.00;100570.94;10434579;28;20052;-83
2024/02/26 22:46:30;;;;;;;11.95;2.70;;;;;;;15.82;100.00;100570.19;10468256;28;20044;-84
2024/02/26 22:51:54;;;;;;;11.05;3.08;;;;;;;15.72;100.00;100576.50;10462889;28;20049;-84
2024/02/26 22:57:18;;;;;;;16.35;3.22;;;;;;;15.56;100.00;100573.06;10474879;28;20513;-83
2024/02/26 23:02:41;;;;;;;15.70;2.90;;;;;;;15.50;100.00;100584.59;10489749;28;20084;-84
2024/02/26 23:08:04;;;;;;;15.00;2.55;;;;;;;15.40;100.00;100598.88;10450642;28;20044;-84
2024/02/26 23:13:28;;;;;;;9.70;2.42;;;;;;;15.44;100.00;100613.03;10509094;28;20056;-84
2024/02/26 23:18:50;;;;;;;15.13;3.03;;;;;;;15.53;100.00;100616.56;10515273;28;20422;-84
2024/02/26 23:24:14;;;;;;;10.50;2.33;;;;;;;15.65;100.00;100614.69;10499344;28;20041;-84
2024/02/26 23:29:38;;;;;;;9.43;2.63;;;;;;;15.73;100.00;100612.88;10467427;28;20135;-83
2024/02/26 23:35:00;;;;;;;12.10;2.40;;;;;;;15.79;100.00;100613.69;10520573;28;20036;-83
2024/02/26 23:40:24;;;;;;;13.45;3.05;;;;;;;15.78;100.00;100614.59;10488176;28;20059;-84
2024/02/26 23:45:48;;;;;;;11.27;2.25;;;;;;;15.82;100.00;100603.00;10477648;28;20040;-84
2024/02/26 23:51:11;;;;;;;10.95;2.28;;;;;;;15.87;100.00;100605.66;10499416;28;20052;-84
2024/02/26 23:56:34;;;;;;;7.47;2.00;;;;;;;15.90;100.00;100590.53;10495276;28;20037;-84
